Time;durP1;ratioP1;P1;durP2;ratioP2;P2;SDS_P1;SDS_P2;PMS_P1;PMS_P2;Temp;Humidity;BMP_temperature;BMP_pressure;BME280_temperature;BME280_humidity;BME280_pressure;Samples;Min_cycle;Max_cycle;Signal;HPM_P1;HPM_P2
2021/12/30 00:01:02;;;;;;;16.03;12.63;;;12.00;88.30;;;14.70;65.46;100618.31;4863977;29;20197;-64
2021/12/30 00:03:30;;;;;;;17.00;12.50;;;12.00;88.20;;;14.72;65.43;100605.69;4863844;29;20733;-63
2021/12/30 00:05:58;;;;;;;16.33;11.63;;;12.00;88.10;;;14.73;65.67;100609.97;4863922;29;20189;-63
2021/12/30 00:08:25;;;;;;;18.17;12.47;;;12.00;88.10;;;14.74;65.58;100619.53;4863005;29;20199;-64
2021/12/30 00:10:54;;;;;;;18.07;12.37;;;12.00;88.00;;;14.74;65.68;100602.81;4863403;29;20229;-63
2021/12/30 00:13:23;;;;;;;16.37;11.60;;;12.00;88.00;;;14.73;65.64;100602.03;4863455;29;20300;-64
2021/12/30 00:15:51;;;;;;;11.83;10.03;;;12.00;88.00;;;14.73;65.72;100611.78;4863763;29;20204;-64
2021/12/30 00:18:20;;;;;;;12.57;9.63;;;12.00;88.00;;;14.73;65.67;100617.09;4863768;29;20207;-64
2021/12/30 00:20:47;;;;;;;15.27;11.13;;;12.10;87.90;;;14.71;65.74;100625.22;4863733;29;20270;-64
2021/12/30 00:23:14;;;;;;;16.93;11.10;;;12.00;87.70;;;14.72;65.49;100626.88;4862729;29;20231;-64
2021/12/30 00:25:42;;;;;;;18.90;9.80;;;12.00;87.80;;;14.73;65.59;100633.81;4862737;29;20696;-64
2021/12/30 00:28:15;;;;;;;14.30;9.47;;;12.00;87.80;;;14.71;65.48;100646.41;4863512;29;20650;-64
2021/12/30 00:30:44;;;;;;;13.90;9.60;;;12.00;87.80;;;14.73;65.71;100649.72;4863582;29;20217;-64
2021/12/30 00:33:12;;;;;;;12.97;9.37;;;12.00;87.70;;;14.73;65.39;100644.41;4863149;29;20217;-64
2021/12/30 00:35:45;;;;;;;16.20;9.77;;;12.00;87.60;;;14.71;65.95;100659.66;4863568;29;20650;-63
2021/12/30 00:38:15;;;;;;;15.97;9.80;;;12.00;87.60;;;14.70;65.43;100657.22;4863186;29;20558;-64
2021/12/30 00:40:42;;;;;;;16.30;9.70;;;12.00;87.60;;;14.66;65.55;100645.41;4844867;29;20198;-64
2021/12/30 00:43:11;;;;;;;14.27;9.47;;;12.00;87.60;;;14.64;65.41;100666.78;4850960;29;20216;-64
2021/12/30 00:45:39;;;;;;;16.40;9.30;;;12.00;87.60;;;14.61;65.67;100669.06;4863286;29;20204;-64
2021/12/30 00:48:08;;;;;;;13.27;8.80;;;12.00;87.60;;;14.59;65.96;100668.44;4863626;29;20196;-63
2021/12/30 00:50:38;;;;;;;15.83;9.37;;;12.00;87.60;;;14.56;65.59;100690.84;4863392;29;20223;-63
2021/12/30 00:53:08;;;;;;;13.17;7.97;;;12.00;87.50;;;14.54;65.70;100690.25;4863065;29;20295;-63
2021/12/30 00:55:38;;;;;;;14.07;8.13;;;12.00;87.50;;;14.54;65.63;100679.66;4862937;29;20204;-63
2021/12/30 00:58:07;;;;;;;14.77;8.60;;;11.90;87.30;;;14.52;65.55;100673.75;4863255;29;20191;-61
2021/12/30 01:00:39;;;;;;;14.80;7.87;;;11.90;87.20;;;14.52;65.48;100683.50;4862945;29;20708;-63
2021/12/30 01:03:07;;;;;;;17.97;9.40;;;11.90;87.10;;;14.52;65.51;100694.09;4862845;29;20702;-64
2021/12/30 01:05:36;;;;;;;17.33;9.70;;;11.90;87.10;;;14.50;65.33;100704.88;4862864;29;20202;-64
2021/12/30 01:08:06;;;;;;;15.77;8.50;;;11.90;87.20;;;14.48;65.48;100714.03;4862782;29;20196;-64
2021/12/30 01:10:36;;;;;;;12.10;8.13;;;11.80;87.10;;;14.45;65.55;100714.47;4863471;29;20196;-63
2021/12/30 01:13:06;;;;;;;16.63;9.67;;;11.80;87.20;;;14.42;65.50;100718.31;4862387;29;20568;-64
2021/12/30 01:15:47;;;;;;;14.57;8.20;;;11.80;87.30;;;14.40;65.40;100736.25;4862470;29;20211;-64
2021/12/30 01:18:28;;;;;;;15.80;8.97;;;11.80;87.20;;;14.37;65.33;100741.94;4863022;29;20203;-64
2021/12/30 01:20:57;;;;;;;18.27;9.37;;;11.70;87.20;;;14.36;65.40;100740.28;4863177;29;20223;-64
2021/12/30 01:23:26;;;;;;;13.87;7.10;;;11.70;87.10;;;14.37;65.59;100755.19;4862378;29;20299;-63
2021/12/30 01:25:57;;;;;;;13.87;7.23;;;11.70;87.00;;;14.35;65.39;100746.63;4862536;29;20192;-64
2021/12/30 01:28:27;;;;;;;13.87;8.30;;;11.70;87.10;;;14.34;65.59;100750.28;4862360;29;20189;-64
2021/12/30 01:30:57;;;;;;;25.83;8.60;;;11.70;87.20;;;14.30;65.47;100749.03;4862390;29;20244;-64
2021/12/30 01:33:27;;;;;;;13.50;7.73;;;11.70;87.30;;;14.29;65.67;100751.88;4861840;29;20224;-63
2021/12/30 01:35:54;;;;;;;13.27;7.70;;;11.60;87.30;;;14.27;65.76;100766.09;4862196;29;20197;-64
2021/12/30 01:38:22;;;;;;;20.43;7.57;;;11.60;87.40;;;14.26;65.60;100782.19;4862589;29;20212;-64
2021/12/30 01:40:54;;;;;;;19.00;6.60;;;11.60;87.50;;;14.25;65.65;100784.03;4861104;29;20575;-63
2021/12/30 01:43:22;;;;;;;12.93;7.00;;;11.60;87.50;;;14.24;65.44;100773.63;4862392;29;20682;-64
2021/12/30 01:45:50;;;;;;;14.93;7.33;;;11.60;87.40;;;14.22;65.51;100779.13;4862659;29;20629;-63
2021/12/30 01:48:20;;;;;;;11.10;5.47;;;11.60;87.50;;;14.21;65.74;100766.09;4862164;29;20203;-64
2021/12/30 01:50:48;;;;;;;17.47;7.30;;;11.60;87.50;;;14.20;65.83;100769.75;4862116;29;20603;-64
2021/12/30 01:53:16;;;;;;;13.00;6.20;;;11.50;87.50;;;14.19;65.75;100779.50;4860558;29;20227;-64
2021/12/30 01:55:45;;;;;;;14.97;6.27;;;11.60;87.60;;;14.19;65.73;100784.00;4862376;29;20279;-64
2021/12/30 01:58:13;;;;;;;19.20;6.80;;;11.60;87.60;;;14.18;65.85;100792.94;4862284;29;20221;-64
2021/12/30 02:00:45;;;;;;;16.90;6.90;;;11.50;87.50;;;14.16;65.86;100810.88;4861799;29;20647;-64
2021/12/30 02:03:15;;;;;;;15.63;7.07;;;11.50;87.60;;;14.16;65.84;100826.75;4861496;29;20288;-64
2021/12/30 02:05:44;;;;;;;15.03;6.97;;;11.50;87.70;;;14.14;66.10;100812.88;4862014;29;20601;-63
2021/12/30 02:08:15;;;;;;;19.83;6.77;;;11.50;87.80;;;14.13;65.80;100801.47;4861729;29;20751;-64
2021/12/30 02:10:46;;;;;;;15.77;6.30;;;11.50;87.80;;;14.12;65.97;100805.13;4861817;29;20212;-64
2021/12/30 02:13:19;;;;;;;12.13;5.87;;;11.50;87.80;;;14.12;66.10;100791.09;4862397;29;20221;-64
2021/12/30 02:15:47;;;;;;;16.67;6.40;;;11.50;87.70;;;14.12;66.19;100788.44;4862003;29;20208;-64
2021/12/30 02:18:16;;;;;;;16.77;6.47;;;11.50;87.60;;;14.12;66.07;100799.03;4861371;29;20224;-64
2021/12/30 02:20:49;;;;;;;18.07;7.43;;;11.50;87.50;;;14.11;65.80;100786.81;4861333;29;20197;-64
2021/12/30 02:23:20;;;;;;;14.53;7.07;;;11.50;87.60;;;14.10;66.07;100798.41;4861349;29;20244;-63
2021/12/30 02:25:50;;;;;;;17.90;7.40;;;11.50;87.60;;;14.11;65.84;100807.97;4860380;29;20284;-64
2021/12/30 02:28:23;;;;;;;14.80;7.67;;;11.50;88.50;;;14.10;65.78;100806.34;4861762;29;20554;-63
2021/12/30 02:30:53;;;;;;;19.07;7.60;;;11.40;87.70;;;14.09;66.02;100805.53;4861592;29;20670;-63
2021/12/30 02:33:22;;;;;;;17.40;7.47;;;11.40;87.80;;;14.10;65.85;100817.75;4861200;29;20220;-62
2021/12/30 02:35:52;;;;;;;22.40;8.17;;;11.50;88.00;;;14.09;65.86;100810.84;4861059;29;20204;-64
2021/12/30 02:38:22;;;;;;;16.80;8.63;;;11.40;87.90;;;14.09;66.20;100820.59;4861175;29;20209;-64
2021/12/30 02:40:53;;;;;;;19.70;8.60;;;11.40;87.90;;;14.08;66.00;100809.19;4861331;29;20244;-63
2021/12/30 02:43:24;;;;;;;17.77;7.60;;;11.40;88.00;;;14.08;66.04;100821.59;4861014;29;20252;-63
2021/12/30 02:45:53;;;;;;;18.77;8.80;;;11.50;88.00;;;14.09;66.07;100834.66;4861212;29;20275;-64
2021/12/30 02:48:24;;;;;;;19.43;8.70;;;11.50;88.10;;;14.10;66.24;100848.69;4861124;29;20208;-64
2021/12/30 02:50:58;;;;;;;20.07;8.77;;;11.50;88.10;;;14.08;66.05;100851.53;4861038;29;20216;-64
2021/12/30 02:53:26;;;;;;;18.27;8.13;;;11.50;88.10;;;14.09;66.22;100862.94;4860264;29;20388;-64
2021/12/30 02:55:54;;;;;;;18.17;8.30;;;11.50;88.20;;;14.09;66.27;100857.66;4861051;29;20607;-64
2021/12/30 02:58:24;;;;;;;20.03;9.63;;;11.50;88.00;;;14.10;66.18;100867.22;4860969;29;20200;-64
2021/12/30 03:00:59;;;;;;;20.43;8.90;;;11.50;88.00;;;14.09;65.98;100866.41;4860853;29;20259;-63
2021/12/30 03:03:27;;;;;;;20.20;8.83;;;11.50;88.00;;;14.12;66.11;100865.22;4860423;29;20219;-64
2021/12/30 03:06:04;;;;;;;17.43;8.03;;;11.50;88.60;;;14.11;66.14;100880.28;4860694;29;20196;-64
2021/12/30 03:08:32;;;;;;;20.47;8.20;;;11.50;88.00;;;14.13;66.25;100885.38;4860358;29;20200;-64
2021/12/30 03:11:00;;;;;;;21.67;8.57;;;11.50;88.00;;;14.15;65.92;100896.56;4860435;29;20302;-64
2021/12/30 03:13:32;;;;;;;14.90;7.67;;;11.50;88.00;;;14.15;65.82;100896.56;4860285;29;20240;-64
2021/12/30 03:16:04;;;;;;;20.07;7.47;;;11.50;88.00;;;14.15;66.02;100894.75;4860666;29;20374;-64
2021/12/30 03:18:32;;;;;;;16.60;7.03;;;11.50;88.00;;;14.19;65.77;100900.50;4860656;29;20201;-64
2021/12/30 03:21:05;;;;;;;16.30;7.37;;;11.50;88.00;;;14.19;65.80;100893.34;4861327;29;20652;-63
2021/12/30 03:23:33;;;;;;;20.90;8.00;;;11.50;87.90;;;14.22;65.75;100898.25;4859788;29;20227;-64
2021/12/30 03:26:04;;;;;;;19.53;8.13;;;11.50;87.90;;;14.24;65.39;100892.75;4860320;29;20292;-64
2021/12/30 03:28:32;;;;;;;19.20;6.70;;;11.50;87.80;;;14.23;65.50;100891.13;4860735;29;20203;-64
2021/12/30 03:30:59;;;;;;;19.23;8.03;;;11.50;87.60;;;14.23;65.52;100877.91;4861961;29;20224;-64
2021/12/30 03:33:29;;;;;;;19.27;6.53;;;11.50;87.60;;;14.19;65.64;100895.19;4863531;29;20230;-63
2021/12/30 03:36:01;;;;;;;23.63;7.33;;;11.50;87.60;;;14.16;65.55;100900.88;4864209;29;20220;-63
2021/12/30 03:38:34;;;;;;;18.40;7.57;;;11.50;87.60;;;14.14;65.68;100901.03;4863877;29;20279;-64
2021/12/30 03:41:03;;;;;;;15.47;6.50;;;11.40;87.70;;;14.12;65.88;100886.38;4863907;29;20215;-64
2021/12/30 03:43:31;;;;;;;17.10;5.93;;;11.40;87.50;;;14.10;65.74;100891.03;4863936;29;20252;-64
2021/12/30 03:45:59;;;;;;;19.33;6.87;;;11.40;87.50;;;14.08;65.57;100893.88;4864136;29;20193;-64
2021/12/30 03:48:33;;;;;;;21.23;7.67;;;11.40;87.50;;;14.07;66.00;100896.75;4864164;29;20541;-63
2021/12/30 03:51:05;;;;;;;21.90;6.87;;;11.40;87.50;;;14.06;65.68;100905.69;4863463;29;20224;-63
2021/12/30 03:53:39;;;;;;;20.50;6.27;;;11.40;87.70;;;14.04;65.92;100902.41;4863297;29;20631;-64
2021/12/30 03:56:09;;;;;;;21.73;6.23;;;11.40;87.70;;;14.04;65.84;100902.41;4863245;29;20200;-64
2021/12/30 03:58:39;;;;;;;20.63;6.30;;;11.40;87.80;;;14.04;65.70;100902.41;4864023;29;20279;-64
2021/12/30 04:01:08;;;;;;;20.63;6.40;;;11.40;87.80;;;14.03;65.77;100914.00;4863603;29;20271;-63
2021/12/30 04:03:37;;;;;;;18.57;5.27;;;11.40;88.20;;;14.02;66.17;100909.72;4863079;29;20220;-63
2021/12/30 04:06:05;;;;;;;21.40;6.40;;;11.40;87.70;;;14.02;65.69;100893.84;4862380;29;20291;-63
2021/12/30 04:08:34;;;;;;;17.33;6.17;;;11.40;87.70;;;14.03;65.84;100884.88;4863522;29;20200;-64
2021/12/30 04:11:02;;;;;;;22.40;5.10;;;11.40;87.60;;;14.05;65.89;100888.16;4862838;29;20296;-64
2021/12/30 04:13:30;;;;;;;21.13;5.93;;;11.40;87.60;;;14.07;65.86;100872.91;4861869;29;20224;-64
2021/12/30 04:15:57;;;;;;;20.77;6.13;;;11.40;87.40;;;14.08;65.59;100871.88;4863360;29;20291;-63
2021/12/30 04:18:25;;;;;;;24.57;6.43;;;11.40;87.50;;;14.08;65.71;100871.88;4863245;29;20206;-64
2021/12/30 04:20:52;;;;;;;19.27;6.07;;;11.40;87.50;;;14.10;65.56;100869.84;4862980;29;20196;-64
2021/12/30 04:23:20;;;;;;;18.83;6.30;;;11.40;87.40;;;14.11;65.65;100872.34;4862878;29;20216;-64
2021/12/30 04:25:49;;;;;;;26.33;7.30;;;11.40;87.30;;;14.14;65.45;100887.00;4863021;29;20638;-64
2021/12/30 04:28:16;;;;;;;19.97;6.13;;;11.40;87.20;;;14.15;65.46;100888.63;4862648;29;20203;-64
2021/12/30 04:30:44;;;;;;;19.50;5.07;;;11.40;87.20;;;14.14;65.18;100887.81;4863567;29;20211;-64
2021/12/30 04:33:11;;;;;;;19.87;6.20;;;11.30;87.30;;;14.16;65.40;100903.50;4863005;29;20235;-64
2021/12/30 04:35:39;;;;;;;21.00;6.30;;;11.40;87.50;;;14.15;65.40;100897.41;4863141;29;20630;-64
2021/12/30 04:38:06;;;;;;;23.90;6.73;;;11.40;87.30;;;14.14;65.34;100882.50;4861946;29;20304;-64
2021/12/30 04:40:33;;;;;;;15.73;5.93;;;11.40;87.50;;;14.17;65.29;100886.59;4862808;29;20200;-64
2021/12/30 04:43:02;;;;;;;16.20;6.20;;;11.40;88.20;;;14.19;65.16;100884.59;4861573;29;20246;-64
2021/12/30 04:45:30;;;;;;;19.40;6.03;;;11.50;87.60;;;14.21;65.44;100882.56;4861778;29;20271;-64
2021/12/30 04:47:58;;;;;;;17.47;6.50;;;11.50;87.50;;;14.26;65.47;100880.16;4862785;29;20227;-64
2021/12/30 04:50:25;;;;;;;18.03;6.63;;;11.50;87.50;;;14.28;65.63;100862.25;4862747;29;20201;-64
2021/12/30 04:52:53;;;;;;;25.17;8.17;;;11.50;87.50;;;14.34;65.36;100861.47;4862222;29;20295;-64
2021/12/30 04:55:20;;;;;;;15.90;6.20;;;11.60;87.40;;;14.38;64.95;100851.34;4862869;29;20257;-64
2021/12/30 04:57:48;;;;;;;30.50;9.30;;;11.60;87.50;;;14.39;65.00;100850.31;4862544;29;20196;-64
2021/12/30 05:00:17;;;;;;;23.77;8.53;;;11.60;87.20;;;14.41;64.96;100862.34;4862379;29;20197;-63
2021/12/30 05:05:18;;;;;;;29.53;9.57;;;11.60;87.60;;;14.45;64.88;100878.66;4863024;29;20220;-63
2021/12/30 05:07:46;;;;;;;27.07;9.37;;;11.70;87.00;;;14.48;64.97;100883.53;4863070;29;20207;-63
2021/12/30 05:10:13;;;;;;;24.10;9.27;;;11.70;87.00;;;14.49;64.88;100890.50;4863006;29;20689;-63
2021/12/30 05:12:40;;;;;;;28.43;9.70;;;11.70;87.00;;;14.51;64.76;100894.59;4862731;29;20249;-64
2021/12/30 05:15:10;;;;;;;21.03;9.63;;;11.70;87.00;;;14.55;64.88;100905.59;4862963;29;20696;-63
2021/12/30 05:17:40;;;;;;;22.77;7.57;;;11.70;86.90;;;14.58;64.63;100889.31;4863054;29;20204;-64
2021/12/30 05:20:09;;;;;;;18.33;8.57;;;11.70;87.00;;;14.57;64.77;100883.19;4862551;29;20291;-63
2021/12/30 05:22:37;;;;;;;26.03;9.57;;;11.80;86.60;;;14.59;64.71;100885.66;4862023;29;20489;-64
2021/12/30 05:25:06;;;;;;;30.03;10.23;;;11.80;86.60;;;14.63;64.42;100871.81;4862606;29;20196;-64
2021/12/30 05:27:33;;;;;;;22.53;9.03;;;11.80;86.50;;;14.66;64.56;100892.63;4861995;29;20276;-64
2021/12/30 05:30:01;;;;;;;26.17;10.00;;;11.80;86.50;;;14.70;64.38;100904.47;4861910;29;20200;-63
2021/12/30 05:32:28;;;;;;;29.23;10.13;;;11.80;86.40;;;14.71;64.38;100908.72;4861928;29;20221;-63
2021/12/30 05:34:57;;;;;;;20.13;9.57;;;11.90;86.60;;;14.73;64.57;100914.66;4861963;29;20192;-64
2021/12/30 05:37:24;;;;;;;26.97;9.40;;;11.90;86.70;;;14.76;64.32;100924.84;4862114;29;20207;-64
2021/12/30 05:39:51;;;;;;;23.23;10.03;;;11.90;86.60;;;14.79;64.25;100935.06;4862115;29;20659;-63
2021/12/30 05:42:22;;;;;;;25.20;9.90;;;12.00;86.60;;;14.84;64.09;100953.84;4861683;29;20188;-63
2021/12/30 05:44:50;;;;;;;28.13;10.07;;;12.00;86.50;;;14.86;63.75;100938.56;4861909;29;20300;-62
2021/12/30 05:47:19;;;;;;;24.37;9.87;;;12.00;86.50;;;14.89;63.65;100929.41;4861833;29;20192;-63
2021/12/30 05:49:46;;;;;;;23.77;9.50;;;12.00;86.40;;;14.91;64.11;100909.63;4861200;29;20192;-63
2021/12/30 05:52:15;;;;;;;22.00;8.87;;;12.10;86.60;;;14.95;63.79;100906.59;4861813;29;20216;-63
2021/12/30 05:54:43;;;;;;;25.70;11.77;;;12.10;86.40;;;15.01;63.73;100908.44;4860689;29;20300;-63
2021/12/30 05:57:12;;;;;;;24.00;10.33;;;12.10;86.20;;;15.03;64.06;100909.88;4860694;29;20208;-63
2021/12/30 05:59:39;;;;;;;25.23;11.03;;;12.10;86.20;;;15.04;63.80;100913.34;4861880;29;20227;-63
2021/12/30 06:02:06;;;;;;;21.23;10.10;;;12.10;86.20;;;15.06;63.88;100898.06;4861788;29;20193;-63
2021/12/30 06:04:35;;;;;;;26.30;10.90;;;12.20;86.20;;;15.09;63.78;100892.38;4860913;29;20368;-63
2021/12/30 06:07:03;;;;;;;23.73;11.03;;;12.20;86.20;;;15.12;63.46;100886.66;4860011;29;20189;-62
2021/12/30 06:09:31;;;;;;;18.37;8.77;;;12.20;86.20;;;15.15;63.43;100894.19;4860084;29;20236;-63
2021/12/30 06:11:59;;;;;;;27.07;9.77;;;12.30;86.30;;;15.16;63.75;100893.19;4861273;29;20217;-63
2021/12/30 06:14:26;;;;;;;21.60;10.23;;;12.30;86.20;;;15.20;63.98;100894.44;4861096;29;20757;-63
2021/12/30 06:16:53;;;;;;;22.07;9.53;;;12.30;86.10;;;15.23;63.91;100909.94;4861529;29;20197;-63
2021/12/30 06:19:21;;;;;;;21.50;8.63;;;12.30;86.00;;;15.26;63.53;100920.94;4861365;29;20688;-63
2021/12/30 06:21:49;;;;;;;27.80;11.03;;;12.40;86.10;;;15.30;63.38;100922.22;4859683;29;20216;-63
2021/12/30 06:24:16;;;;;;;26.87;9.63;;;12.40;86.00;;;15.31;63.26;100917.69;4860623;29;20221;-62
2021/12/30 06:26:45;;;;;;;23.93;10.17;;;12.40;85.90;;;15.32;63.47;100914.84;4861128;29;20212;-63
2021/12/30 06:29:12;;;;;;;23.37;10.70;;;12.40;85.90;;;15.33;63.62;100921.78;4861244;29;20290;-63
2021/12/30 06:31:40;;;;;;;32.77;11.43;;;12.40;85.90;;;15.35;63.39;100924.25;4861308;29;20298;-63
2021/12/30 06:34:07;;;;;;;22.50;11.13;;;12.40;85.80;;;15.36;63.44;100923.22;4860665;29;20741;-64
2021/12/30 06:36:35;;;;;;;24.23;10.87;;;12.40;85.90;;;15.36;63.41;100920.56;4861212;29;20207;-63
2021/12/30 06:39:03;;;;;;;21.77;8.37;;;12.50;86.10;;;15.37;63.53;100916.91;4861514;29;20777;-63
2021/12/30 06:41:30;;;;;;;19.93;9.83;;;12.50;86.10;;;15.41;63.16;100934.03;4861149;29;20227;-63
2021/12/30 06:43:59;;;;;;;30.43;12.57;;;12.50;86.70;;;15.41;63.22;100916.31;4861073;29;20217;-63
2021/12/30 06:46:27;;;;;;;31.93;11.90;;;12.50;85.70;;;15.36;63.29;100900.16;4862029;29;20253;-64
2021/12/30 06:48:54;;;;;;;25.83;10.43;;;12.60;85.70;;;15.37;63.83;100916.91;4860415;29;20215;-64
2021/12/30 06:51:24;;;;;;;22.90;11.03;;;12.60;85.70;;;15.40;63.34;100917.31;4860786;29;20228;-64
2021/12/30 06:53:54;;;;;;;23.13;11.80;;;12.60;85.60;;;15.43;63.47;100906.31;4860523;29;20762;-62
2021/12/30 06:56:23;;;;;;;22.90;9.80;;;12.60;85.50;;;15.45;63.39;100919.41;4861017;29;20207;-62
2021/12/30 06:58:51;;;;;;;25.70;10.17;;;12.70;85.70;;;15.49;63.35;100917.97;4860789;29;20192;-64
2021/12/30 07:01:19;;;;;;;21.00;9.87;;;12.70;85.70;;;15.52;63.23;100922.91;4861181;29;20196;-63
2021/12/30 07:03:47;;;;;;;26.47;11.63;;;12.70;85.70;;;15.56;63.53;100932.06;4860578;29;20239;-64
2021/12/30 07:06:14;;;;;;;20.10;10.37;;;12.70;85.70;;;15.59;63.33;100931.69;4860631;29;20207;-63
2021/12/30 07:08:42;;;;;;;21.70;11.70;;;12.70;85.70;;;15.63;63.62;100940.84;4859252;29;20223;-64
2021/12/30 07:11:09;;;;;;;19.47;10.13;;;12.70;85.80;;;15.65;63.04;100936.16;4860397;29;20193;-63
2021/12/30 07:13:37;;;;;;;22.80;11.77;;;12.80;85.90;;;15.68;63.06;100924.31;4859863;29;20216;-62
2021/12/30 07:16:05;;;;;;;22.30;9.80;;;12.80;85.90;;;15.70;63.24;100928.41;4860143;29;20220;-64
2021/12/30 07:18:34;;;;;;;23.30;10.07;;;12.80;85.90;;;15.74;63.10;100928.81;4860094;29;20261;-65
2021/12/30 07:21:01;;;;;;;21.60;11.27;;;12.80;85.90;;;15.76;63.10;100924.94;4859904;29;20292;-63
2021/12/30 07:23:28;;;;;;;26.83;11.87;;;12.90;86.00;;;15.74;63.02;100923.50;4859635;29;20725;-64
2021/12/30 07:25:56;;;;;;;20.20;12.53;;;12.90;85.80;;;15.71;63.35;100924.75;4860031;29;20217;-63
2021/12/30 07:28:23;;;;;;;19.87;10.53;;;12.90;85.80;;;15.70;63.19;100922.28;4859831;29;20492;-63
2021/12/30 07:30:50;;;;;;;22.43;10.90;;;13.00;85.70;;;15.72;63.49;100915.75;4859925;29;20228;-64
2021/12/30 07:33:18;;;;;;;24.47;12.30;;;13.00;85.80;;;15.70;63.80;100923.09;4859697;29;20220;-64
2021/12/30 07:35:46;;;;;;;24.97;11.33;;;13.00;85.60;;;15.68;63.75;100917.19;4860468;29;20280;-63
2021/12/30 07:38:15;;;;;;;27.83;12.60;;;13.00;85.60;;;15.66;63.80;100935.16;4859901;29;20197;-63
2021/12/30 07:40:42;;;;;;;30.00;12.23;;;13.00;85.60;;;15.66;63.82;100913.09;4859887;29;20204;-64
2021/12/30 07:43:10;;;;;;;24.63;12.03;;;13.00;85.60;;;15.64;63.97;100921.28;4859486;29;20219;-64
2021/12/30 07:45:37;;;;;;;27.17;11.83;;;13.00;85.60;;;15.64;64.21;100918.63;4859907;29;20196;-64
2021/12/30 07:48:05;;;;;;;30.47;13.33;;;13.00;85.70;;;15.65;64.08;100919.41;4860131;29;20224;-64
2021/12/30 07:50:33;;;;;;;25.23;12.43;;;13.00;85.70;;;15.65;64.03;100914.94;4859999;29;20284;-64
2021/12/30 07:53:01;;;;;;;22.70;11.90;;;13.00;85.80;;;15.63;64.24;100922.28;4859538;29;20674;-64
2021/12/30 07:55:29;;;;;;;23.20;11.30;;;13.10;85.90;;;15.65;64.26;100922.91;4859917;29;20204;-64
2021/12/30 07:57:58;;;;;;;26.73;13.67;;;13.10;86.00;;;15.68;64.41;100925.16;4859986;29;20196;-64
2021/12/30 08:00:26;;;;;;;24.27;12.50;;;13.10;86.20;;;15.72;64.16;100922.88;4859535;29;20207;-64
2021/12/30 08:02:53;;;;;;;30.30;12.70;;;13.10;86.30;;;15.70;64.18;100923.09;4860153;29;20619;-63
2021/12/30 08:05:21;;;;;;;27.30;12.00;;;13.10;86.40;;;15.70;64.57;100923.09;4860133;29;20280;-65
2021/12/30 08:07:49;;;;;;;25.47;11.47;;;13.10;86.40;;;15.72;64.42;100936.97;4859629;29;20280;-64
2021/12/30 08:10:18;;;;;;;22.60;12.17;;;13.10;86.50;;;15.73;64.46;100938.63;4860079;29;20220;-63
2021/12/30 08:12:48;;;;;;;19.40;10.80;;;13.10;86.70;;;15.73;64.47;100937.81;4859484;29;20232;-63
2021/12/30 08:15:16;;;;;;;25.63;11.63;;;13.10;86.60;;;15.75;64.33;100933.94;4859559;29;20205;-64
2021/12/30 08:17:46;;;;;;;20.37;10.97;;;13.10;86.80;;;15.79;64.44;100942.28;4857520;29;20288;-65
2021/12/30 08:20:15;;;;;;;20.00;12.83;;;13.10;86.80;;;15.78;64.79;100936.19;4844828;29;20193;-65
2021/12/30 08:22:44;;;;;;;26.40;11.63;;;13.10;86.90;;;15.79;64.76;100943.13;4851020;29;20231;-64
2021/12/30 08:25:13;;;;;;;23.23;11.80;;;13.10;86.90;;;15.81;64.63;100940.28;4863615;29;20208;-63
2021/12/30 08:27:45;;;;;;;22.03;10.33;;;13.20;87.10;;;15.79;64.72;100948.41;4861888;29;20201;-63
2021/12/30 08:30:15;;;;;;;16.93;11.23;;;13.20;87.20;;;15.77;65.03;100934.53;4862724;29;20272;-63
2021/12/30 08:32:44;;;;;;;18.60;10.20;;;13.20;87.30;;;15.76;65.06;100927.59;4862266;29;20595;-64
2021/12/30 08:35:14;;;;;;;15.33;10.60;;;13.20;87.40;;;15.73;65.30;100938.63;4862914;29;20216;-64
2021/12/30 08:37:42;;;;;;;15.87;9.90;;;13.20;87.50;;;15.73;65.38;100946.59;4862547;29;20374;-63
2021/12/30 08:40:13;;;;;;;20.80;11.53;;;13.20;87.50;;;15.72;65.66;100947.59;4862985;29;20264;-64
2021/12/30 08:42:43;;;;;;;20.77;12.40;;;13.20;87.60;;;15.72;65.96;100939.63;4861886;29;20677;-64
2021/12/30 08:45:12;;;;;;;19.97;11.77;;;13.20;88.00;;;15.71;66.04;100951.28;4862974;29;20200;-64
2021/12/30 08:47:42;;;;;;;20.47;12.10;;;13.20;88.10;;;15.75;65.94;100941.06;4862211;29;20203;-64
2021/12/30 08:50:14;;;;;;;19.57;9.93;;;13.20;88.10;;;15.81;65.73;100938.41;4862796;29;20196;-63
2021/12/30 08:52:43;;;;;;;20.03;11.97;;;13.20;88.30;;;15.86;66.03;100928.00;4862350;29;20216;-64
2021/12/30 08:55:13;;;;;;;18.13;11.33;;;13.20;88.50;;;15.93;65.51;100934.13;4862364;29;20351;-63
2021/12/30 08:57:44;;;;;;;16.83;10.20;;;13.30;88.70;;;15.97;65.95;100922.09;4862965;29;20279;-62
2021/12/30 09:00:19;;;;;;;17.20;11.53;;;13.40;88.90;;;16.02;65.56;100924.94;4862786;29;20203;-62
2021/12/30 09:02:46;;;;;;;15.40;10.67;;;13.40;88.90;;;16.09;65.99;100917.78;4862608;29;20242;-64
2021/12/30 09:05:15;;;;;;;16.33;11.73;;;13.40;89.20;;;16.15;65.57;100932.06;4862487;29;20205;-62
2021/12/30 09:07:43;;;;;;;17.97;11.50;;;13.40;89.10;;;16.19;65.79;100920.84;4862837;29;20280;-64
2021/12/30 09:10:14;;;;;;;15.53;10.53;;;13.50;89.40;;;16.24;65.53;100920.22;4862832;29;20193;-63
2021/12/30 09:12:46;;;;;;;15.63;10.73;;;13.50;89.40;;;16.27;65.71;100931.25;4862644;29;20315;-64
2021/12/30 09:15:21;;;;;;;14.50;11.13;;;13.50;89.40;;;16.33;65.67;100928.81;4863052;29;20280;-62
2021/12/30 09:17:50;;;;;;;15.17;10.27;;;13.60;89.40;;;16.38;66.07;100932.44;4860996;29;20243;-64
2021/12/30 09:20:18;;;;;;;12.83;9.43;;;13.60;89.50;;;16.44;65.84;100933.47;4862092;29;20192;-63
2021/12/30 09:22:46;;;;;;;13.17;10.20;;;13.70;89.70;;;16.48;65.51;100929.38;4861575;29;20196;-63
2021/12/30 09:25:16;;;;;;;12.17;9.23;;;13.70;89.60;;;16.52;66.03;100920.78;4862268;29;20552;-63
2021/12/30 09:27:45;;;;;;;12.10;9.20;;;13.80;89.70;;;16.59;65.66;100931.44;4861807;29;20674;-63
2021/12/30 09:30:16;;;;;;;31.90;22.67;;;13.80;89.70;;;16.64;65.82;100927.09;4861525;29;20197;-63
2021/12/30 09:32:45;;;;;;;14.43;10.70;;;13.80;89.50;;;16.68;65.81;100928.34;4861361;29;20303;-62
2021/12/30 09:35:14;;;;;;;11.57;8.77;;;13.90;89.60;;;16.70;65.69;100939.56;4861856;29;20280;-62
2021/12/30 09:37:42;;;;;;;13.30;9.63;;;13.90;89.50;;;16.73;65.62;100930.38;4861637;29;20666;-60
2021/12/30 09:40:14;;;;;;;9.03;7.20;;;14.00;89.40;;;16.75;65.70;100934.44;4861720;29;20264;-62
2021/12/30 09:42:47;;;;;;;9.53;7.13;;;14.10;89.40;;;16.81;65.55;100922.13;4860329;29;20193;-62
2021/12/30 09:45:17;;;;;;;13.07;8.80;;;14.10;90.00;;;16.87;65.65;100931.94;4861692;29;20195;-63
2021/12/30 09:47:49;;;;;;;10.83;7.87;;;14.10;89.30;;;16.87;65.41;100931.94;4862242;29;20228;-64
2021/12/30 09:50:21;;;;;;;10.00;7.37;;;14.20;89.40;;;16.89;65.55;100929.88;4861832;29;20219;-62
2021/12/30 09:52:48;;;;;;;10.33;8.07;;;14.20;89.40;;;16.92;65.61;100929.47;4861603;29;20228;-62
2021/12/30 09:55:16;;;;;;;8.87;7.03;;;14.20;89.40;;;16.96;65.54;100930.66;4862833;29;20197;-62
2021/12/30 09:57:45;;;;;;;10.30;7.90;;;14.20;89.40;;;16.99;65.74;100924.13;4861698;29;20199;-63
2021/12/30 10:00:14;;;;;;;10.37;7.47;;;14.30;89.40;;;17.01;65.73;100922.06;4861318;29;20324;-63
2021/12/30 10:02:43;;;;;;;8.10;7.07;;;14.30;89.40;;;17.04;65.09;100933.09;4860998;29;20199;-63
2021/12/30 10:05:15;;;;;;;8.07;7.27;;;14.30;89.50;;;17.05;65.50;100918.75;4861338;29;20661;-63
2021/12/30 10:07:43;;;;;;;6.10;5.50;;;14.40;89.60;;;17.07;65.80;100937.97;4861463;29;20695;-64
2021/12/30 10:10:29;;;;;;;7.10;5.77;;;14.40;89.50;;;17.08;65.66;100923.66;4861837;29;20655;-64
2021/12/30 10:13:00;;;;;;;6.97;5.67;;;14.40;89.50;;;17.11;65.64;100928.56;4860781;29;20534;-64